sensor_id;sensor_type;location;lat;lon;timestamp;pressure;altitude;pressure_sealevel;temperature;humidity
40872;BME280;26591;43.264;26.940;2022-09-23T00:02:12;99107.47;;;12.46;68.12
40872;BME280;26591;43.264;26.940;2022-09-23T00:04:37;99109.34;;;12.37;68.57
40872;BME280;26591;43.264;26.940;2022-09-23T00:07:03;99106.81;;;12.44;68.41
40872;BME280;26591;43.264;26.940;2022-09-23T00:09:28;99117.47;;;12.12;69.08
40872;BME280;26591;43.264;26.940;2022-09-23T00:11:53;99112.28;;;12.19;69.41
40872;BME280;26591;43.264;26.940;2022-09-23T00:14:19;99109.84;;;11.69;70.47
40872;BME280;26591;43.264;26.940;2022-09-23T00:16:45;99108.56;;;11.57;71.49
40872;BME280;26591;43.264;26.940;2022-09-23T00:19:11;99113.53;;;11.52;71.59
40872;BME280;26591;43.264;26.940;2022-09-23T00:21:36;99123.13;;;11.53;70.94
40872;BME280;26591;43.264;26.940;2022-09-23T00:24:02;99120.31;;;11.54;71.28
40872;BME280;26591;43.264;26.940;2022-09-23T00:26:27;99119.34;;;11.47;71.44
40872;BME280;26591;43.264;26.940;2022-09-23T00:28:53;99123.66;;;11.40;71.17
40872;BME280;26591;43.264;26.940;2022-09-23T00:31:20;99117.50;;;11.48;71.62
40872;BME280;26591;43.264;26.940;2022-09-23T00:33:45;99115.50;;;11.58;71.58
40872;BME280;26591;43.264;26.940;2022-09-23T00:36:13;99125.81;;;11.44;71.53
40872;BME280;26591;43.264;26.940;2022-09-23T00:38:42;99120.41;;;11.21;72.14
40872;BME280;26591;43.264;26.940;2022-09-23T00:41:08;99126.19;;;11.25;72.41
40872;BME280;26591;43.264;26.940;2022-09-23T00:46:05;99128.69;;;11.02;73.17
40872;BME280;26591;43.264;26.940;2022-09-23T00:48:31;99125.03;;;11.11;73.37
40872;BME280;26591;43.264;26.940;2022-09-23T00:50:56;99123.88;;;11.22;72.40
40872;BME280;26591;43.264;26.940;2022-09-23T00:53:22;99128.19;;;11.31;72.23
40872;BME280;26591;43.264;26.940;2022-09-23T00:55:53;99126.81;;;11.43;72.47
40872;BME280;26591;43.264;26.940;2022-09-23T00:58:21;99132.28;;;11.25;72.26
40872;BME280;26591;43.264;26.940;2022-09-23T01:00:48;99119.22;;;11.32;72.23
40872;BME280;26591;43.264;26.940;2022-09-23T01:03:13;99117.69;;;11.46;72.16
40872;BME280;26591;43.264;26.940;2022-09-23T01:05:39;99118.31;;;11.56;72.02
40872;BME280;26591;43.264;26.940;2022-09-23T01:08:06;99118.81;;;11.60;71.79
40872;BME280;26591;43.264;26.940;2022-09-23T01:10:34;99115.66;;;11.56;71.62
40872;BME280;26591;43.264;26.940;2022-09-23T01:13:07;99120.97;;;11.65;71.63
40872;BME280;26591;43.264;26.940;2022-09-23T01:23:12;99118.53;;;11.86;70.78
40872;BME280;26591;43.264;26.940;2022-09-23T01:36:23;99123.03;;;11.86;69.71
40872;BME280;26591;43.264;26.940;2022-09-23T01:46:26;99120.53;;;10.29;73.85
40872;BME280;26591;43.264;26.940;2022-09-23T01:48:59;99124.06;;;10.03;74.89
40872;BME280;26591;43.264;26.940;2022-09-23T01:51:29;99126.44;;;10.22;75.52
40872;BME280;26591;43.264;26.940;2022-09-23T01:53:59;99125.47;;;9.81;77.27
40872;BME280;26591;43.264;26.940;2022-09-23T01:56:44;99123.59;;;10.07;77.57
40872;BME280;26591;43.264;26.940;2022-09-23T01:59:22;99129.22;;;10.13;77.05
40872;BME280;26591;43.264;26.940;2022-09-23T02:01:54;99117.19;;;10.18;76.96
40872;BME280;26591;43.264;26.940;2022-09-23T02:04:27;99129.09;;;10.14;76.64
40872;BME280;26591;43.264;26.940;2022-09-23T02:06:58;99127.63;;;10.28;77.09
40872;BME280;26591;43.264;26.940;2022-09-23T02:09:28;99116.84;;;10.30;76.06
40872;BME280;26591;43.264;26.940;2022-09-23T02:11:57;99115.03;;;10.22;76.20
40872;BME280;26591;43.264;26.940;2022-09-23T02:14:28;99111.91;;;10.27;76.45
40872;BME280;26591;43.264;26.940;2022-09-23T02:16:55;99108.44;;;10.26;76.31
40872;BME280;26591;43.264;26.940;2022-09-23T02:21:55;99112.19;;;10.15;76.09
40872;BME280;26591;43.264;26.940;2022-09-23T02:24:26;99109.53;;;9.99;76.98
40872;BME280;26591;43.264;26.940;2022-09-23T02:45:20;99122.34;;;9.85;76.00
40872;BME280;26591;43.264;26.940;2022-09-23T02:47:47;99126.94;;;9.75;76.48
40872;BME280;26591;43.264;26.940;2022-09-23T02:50:13;99118.59;;;9.96;76.06
40872;BME280;26591;43.264;26.940;2022-09-23T02:52:39;99123.75;;;10.06;75.60
40872;BME280;26591;43.264;26.940;2022-09-23T02:55:05;99121.34;;;10.21;74.73
40872;BME280;26591;43.264;26.940;2022-09-23T02:57:33;99122.88;;;10.40;73.78
40872;BME280;26591;43.264;26.940;2022-09-23T02:59:58;99127.66;;;10.36;73.34
40872;BME280;26591;43.264;26.940;2022-09-23T03:02:26;99137.72;;;10.33;73.19
40872;BME280;26591;43.264;26.940;2022-09-23T03:05:10;99136.00;;;10.07;72.83
40872;BME280;26591;43.264;26.940;2022-09-23T03:12:51;99138.06;;;9.87;73.80
40872;BME280;26591;43.264;26.940;2022-09-23T03:20:33;99144.91;;;9.63;75.25
40872;BME280;26591;43.264;26.940;2022-09-23T03:23:01;99154.47;;;9.64;74.95
40872;BME280;26591;43.264;26.940;2022-09-23T03:25:29;99145.56;;;9.65;75.32
40872;BME280;26591;43.264;26.940;2022-09-23T03:27:58;99149.25;;;9.72;74.62
40872;BME280;26591;43.264;26.940;2022-09-23T03:30:25;99143.50;;;9.85;75.32
40872;BME280;26591;43.264;26.940;2022-09-23T03:32:51;99150.09;;;9.81;74.78
40872;BME280;26591;43.264;26.940;2022-09-23T03:35:17;99152.28;;;9.86;74.70
40872;BME280;26591;43.264;26.940;2022-09-23T03:40:11;99146.13;;;9.77;75.08
40872;BME280;26591;43.264;26.940;2022-09-23T03:42:38;99150.13;;;9.89;75.07
40872;BME280;26591;43.264;26.940;2022-09-23T03:45:04;99149.34;;;9.97;74.15
40872;BME280;26591;43.264;26.940;2022-09-23T03:47:33;99149.25;;;9.81;74.71
40872;BME280;26591;43.264;26.940;2022-09-23T03:49:58;99153.38;;;9.75;74.97
40872;BME280;26591;43.264;26.940;2022-09-23T03:52:24;99158.16;;;9.71;75.41
40872;BME280;26591;43.264;26.940;2022-09-23T03:54:49;99153.63;;;9.90;75.11
40872;BME280;26591;43.264;26.940;2022-09-23T03:57:18;99157.28;;;9.97;74.12
40872;BME280;26591;43.264;26.940;2022-09-23T03:59:46;99150.19;;;10.06;73.73
40872;BME280;26591;43.264;26.940;2022-09-23T04:02:11;99157.97;;;10.07;73.70
40872;BME280;26591;43.264;26.940;2022-09-23T04:04:37;99162.22;;;9.92;74.65
40872;BME280;26591;43.264;26.940;2022-09-23T04:07:03;99161.56;;;9.90;74.33
40872;BME280;26591;43.264;26.940;2022-09-23T04:09:28;99158.00;;;10.16;74.66
40872;BME280;26591;43.264;26.940;2022-09-23T04:11:53;99160.47;;;10.09;74.66
40872;BME280;26591;43.264;26.940;2022-09-23T04:14:19;99161.59;;;9.72;74.62
40872;BME280;26591;43.264;26.940;2022-09-23T04:16:45;99170.69;;;9.69;75.16
40872;BME280;26591;43.264;26.940;2022-09-23T04:19:12;99176.75;;;9.61;74.75
40872;BME280;26591;43.264;26.940;2022-09-23T04:21:37;99177.22;;;9.57;75.29
40872;BME280;26591;43.264;26.940;2022-09-23T04:24:03;99170.59;;;9.79;76.04
40872;BME280;26591;43.264;26.940;2022-09-23T04:26:29;99179.38;;;9.88;75.42
40872;BME280;26591;43.264;26.940;2022-09-23T04:28:55;99174.75;;;10.33;77.16
40872;BME280;26591;43.264;26.940;2022-09-23T04:31:20;99181.31;;;10.88;76.43
40872;BME280;26591;43.264;26.940;2022-09-23T04:33:49;99181.47;;;11.44;76.45
40872;BME280;26591;43.264;26.940;2022-09-23T04:36:14;99181.91;;;12.21;74.20
40872;BME280;26591;43.264;26.940;2022-09-23T04:38:43;99175.22;;;12.88;72.11
40872;BME280;26591;43.264;26.940;2022-09-23T04:41:09;99176.81;;;13.36;68.20
40872;BME280;26591;43.264;26.940;2022-09-23T04:43:34;99185.47;;;13.98;67.47
40872;BME280;26591;43.264;26.940;2022-09-23T04:46:01;99180.25;;;14.78;63.73
40872;BME280;26591;43.264;26.940;2022-09-23T04:48:26;99178.19;;;15.45;61.42
40872;BME280;26591;43.264;26.940;2022-09-23T04:50:52;99181.63;;;16.02;59.56
40872;BME280;26591;43.264;26.940;2022-09-23T04:53:17;99186.13;;;16.57;57.79
40872;BME280;26591;43.264;26.940;2022-09-23T04:55:43;99186.97;;;16.71;56.18
40872;BME280;26591;43.264;26.940;2022-09-23T04:58:08;99190.16;;;17.15;54.94
40872;BME280;26591;43.264;26.940;2022-09-23T05:00:34;99197.75;;;17.45;52.74
40872;BME280;26591;43.264;26.940;2022-09-23T05:02:59;99185.78;;;17.68;52.96
40872;BME280;26591;43.264;26.940;2022-09-23T05:05:25;99196.88;;;17.85;52.07
40872;BME280;26591;43.264;26.940;2022-09-23T05:07:53;99194.19;;;18.51;50.97
40872;BME280;26591;43.264;26.940;2022-09-23T05:10:18;99187.22;;;18.75;50.59
40872;BME280;26591;43.264;26.940;2022-09-23T05:12:44;99194.75;;;18.91;49.63
40872;BME280;26591;43.264;26.940;2022-09-23T05:15:09;99197.91;;;19.39;48.41
40872;BME280;26591;43.264;26.940;2022-09-23T05:17:35;99192.34;;;19.15;48.71
40872;BME280;26591;43.264;26.940;2022-09-23T05:20:01;99193.44;;;19.08;48.75
40872;BME280;26591;43.264;26.940;2022-09-23T05:22:28;99197.47;;;19.42;48.66
40872;BME280;26591;43.264;26.940;2022-09-23T05:24:53;99187.97;;;19.65;46.90
40872;BME280;26591;43.264;26.940;2022-09-23T05:27:19;99189.28;;;20.18;45.88
40872;BME280;26591;43.264;26.940;2022-09-23T05:29:45;99202.88;;;20.54;44.88
40872;BME280;26591;43.264;26.940;2022-09-23T05:32:10;99206.38;;;21.15;44.07
40872;BME280;26591;43.264;26.940;2022-09-23T05:34:36;99210.84;;;21.45;44.14
40872;BME280;26591;43.264;26.940;2022-09-23T05:37:01;99216.59;;;21.97;42.92
40872;BME280;26591;43.264;26.940;2022-09-23T05:39:27;99220.22;;;22.02;41.71
40872;BME280;26591;43.264;26.940;2022-09-23T05:41:53;99225.63;;;21.90;42.06
40872;BME280;26591;43.264;26.940;2022-09-23T05:44:19;99221.09;;;21.13;43.54
40872;BME280;26591;43.264;26.940;2022-09-23T05:46:45;99215.66;;;20.58;44.22
40872;BME280;26591;43.264;26.940;2022-09-23T05:49:10;99221.34;;;20.81;44.61
40872;BME280;26591;43.264;26.940;2022-09-23T05:51:36;99214.50;;;20.36;45.27
40872;BME280;26591;43.264;26.940;2022-09-23T05:54:02;99227.59;;;19.19;47.78
40872;BME280;26591;43.264;26.940;2022-09-23T05:56:28;99223.97;;;19.06;48.00
40872;BME280;26591;43.264;26.940;2022-09-23T05:58:55;99225.75;;;18.42;48.62
40872;BME280;26591;43.264;26.940;2022-09-23T06:01:21;99222.47;;;17.20;50.20
40872;BME280;26591;43.264;26.940;2022-09-23T06:03:49;99219.53;;;15.63;54.61
40872;BME280;26591;43.264;26.940;2022-09-23T06:06:15;99228.34;;;15.85;54.72
40872;BME280;26591;43.264;26.940;2022-09-23T06:08:44;99224.03;;;16.32;54.23
40872;BME280;26591;43.264;26.940;2022-09-23T06:11:10;99228.66;;;15.75;54.89
40872;BME280;26591;43.264;26.940;2022-09-23T06:13:36;99241.94;;;14.60;58.95
40872;BME280;26591;43.264;26.940;2022-09-23T06:16:06;99240.44;;;14.87;59.03
40872;BME280;26591;43.264;26.940;2022-09-23T06:18:32;99241.00;;;15.04;56.71
40872;BME280;26591;43.264;26.940;2022-09-23T06:20:59;99240.13;;;15.76;57.07
40872;BME280;26591;43.264;26.940;2022-09-23T06:23:24;99235.81;;;16.38;54.80
40872;BME280;26591;43.264;26.940;2022-09-23T06:25:50;99232.63;;;16.76;53.66
40872;BME280;26591;43.264;26.940;2022-09-23T06:28:15;99233.94;;;17.75;52.60
40872;BME280;26591;43.264;26.940;2022-09-23T06:30:41;99236.59;;;18.08;51.80
40872;BME280;26591;43.264;26.940;2022-09-23T06:33:06;99239.78;;;18.76;50.53
40872;BME280;26591;43.264;26.940;2022-09-23T06:35:32;99239.13;;;19.26;50.04
40872;BME280;26591;43.264;26.940;2022-09-23T06:37:57;99235.22;;;19.47;48.90
40872;BME280;26591;43.264;26.940;2022-09-23T06:40:22;99237.03;;;19.54;48.49
40872;BME280;26591;43.264;26.940;2022-09-23T06:42:55;99236.44;;;20.33;46.64
40872;BME280;26591;43.264;26.940;2022-09-23T06:45:20;99226.16;;;21.21;45.28
40872;BME280;26591;43.264;26.940;2022-09-23T06:47:46;99231.16;;;21.60;44.07
40872;BME280;26591;43.264;26.940;2022-09-23T06:50:12;99235.00;;;21.64;44.57
40872;BME280;26591;43.264;26.940;2022-09-23T06:52:38;99236.34;;;22.14;42.53
40872;BME280;26591;43.264;26.940;2022-09-23T06:55:03;99237.44;;;22.54;42.01
40872;BME280;26591;43.264;26.940;2022-09-23T06:57:29;99240.72;;;22.56;41.88
40872;BME280;26591;43.264;26.940;2022-09-23T06:59:55;99241.13;;;22.48;41.28
40872;BME280;26591;43.264;26.940;2022-09-23T07:02:22;99240.22;;;22.71;40.57
40872;BME280;26591;43.264;26.940;2022-09-23T07:04:48;99239.09;;;20.51;45.94
40872;BME280;26591;43.264;26.940;2022-09-23T07:07:13;99236.84;;;20.18;47.54
40872;BME280;26591;43.264;26.940;2022-09-23T07:09:40;99240.47;;;20.42;47.55
40872;BME280;26591;43.264;26.940;2022-09-23T07:12:05;99239.03;;;20.39;47.46
40872;BME280;26591;43.264;26.940;2022-09-23T07:14:31;99236.81;;;19.99;48.05
40872;BME280;26591;43.264;26.940;2022-09-23T07:16:56;99243.00;;;20.55;46.03
40872;BME280;26591;43.264;26.940;2022-09-23T07:19:24;99248.59;;;20.54;47.03
40872;BME280;26591;43.264;26.940;2022-09-23T07:21:50;99249.91;;;20.82;46.63
40872;BME280;26591;43.264;26.940;2022-09-23T07:24:15;99248.03;;;20.33;47.71
40872;BME280;26591;43.264;26.940;2022-09-23T07:26:42;99250.63;;;20.58;46.69
40872;BME280;26591;43.264;26.940;2022-09-23T07:29:10;99250.97;;;20.62;45.76
40872;BME280;26591;43.264;26.940;2022-09-23T07:31:36;99245.00;;;20.41;47.21
40872;BME280;26591;43.264;26.940;2022-09-23T07:34:01;99240.41;;;20.11;46.68
40872;BME280;26591;43.264;26.940;2022-09-23T07:36:28;99239.81;;;20.77;44.71
40872;BME280;26591;43.264;26.940;2022-09-23T07:38:55;99240.13;;;20.99;44.71
40872;BME280;26591;43.264;26.940;2022-09-23T07:41:25;99241.34;;;21.15;43.96
40872;BME280;26591;43.264;26.940;2022-09-23T07:43:52;99230.63;;;20.85;45.21
40872;BME280;26591;43.264;26.940;2022-09-23T07:46:19;99237.97;;;20.59;45.04
40872;BME280;26591;43.264;26.940;2022-09-23T07:48:44;99240.00;;;20.45;45.50
40872;BME280;26591;43.264;26.940;2022-09-23T07:51:16;99236.00;;;20.85;44.34
40872;BME280;26591;43.264;26.940;2022-09-23T07:53:41;99234.06;;;21.04;44.64
40872;BME280;26591;43.264;26.940;2022-09-23T07:56:07;99235.03;;;21.10;43.87
40872;BME280;26591;43.264;26.940;2022-09-23T07:58:33;99244.81;;;20.24;44.94
40872;BME280;26591;43.264;26.940;2022-09-23T08:01:04;99232.69;;;19.52;46.84
40872;BME280;26591;43.264;26.940;2022-09-23T08:03:29;99236.06;;;20.10;45.89
40872;BME280;26591;43.264;26.940;2022-09-23T08:06:01;99235.34;;;20.71;44.24
40872;BME280;26591;43.264;26.940;2022-09-23T08:08:27;99239.53;;;20.97;42.69
40872;BME280;26591;43.264;26.940;2022-09-23T08:10:58;99236.13;;;21.56;42.33
40872;BME280;26591;43.264;26.940;2022-09-23T08:13:24;99238.00;;;21.32;42.28
40872;BME280;26591;43.264;26.940;2022-09-23T08:15:49;99238.78;;;21.21;42.07
40872;BME280;26591;43.264;26.940;2022-09-23T08:18:15;99235.09;;;20.72;42.22
40872;BME280;26591;43.264;26.940;2022-09-23T08:20:40;99238.66;;;20.54;42.24
40872;BME280;26591;43.264;26.940;2022-09-23T08:23:09;99234.19;;;20.30;42.89
40872;BME280;26591;43.264;26.940;2022-09-23T08:25:34;99229.38;;;20.20;43.33
40872;BME280;26591;43.264;26.940;2022-09-23T08:28:00;99234.34;;;20.84;42.53
40872;BME280;26591;43.264;26.940;2022-09-23T08:30:25;99229.34;;;21.30;41.56
40872;BME280;26591;43.264;26.940;2022-09-23T08:32:50;99229.38;;;20.99;41.59
40872;BME280;26591;43.264;26.940;2022-09-23T08:35:16;99223.09;;;20.75;41.87
40872;BME280;26591;43.264;26.940;2022-09-23T08:37:41;99221.59;;;20.79;41.72
40872;BME280;26591;43.264;26.940;2022-09-23T08:40:07;99223.88;;;21.06;42.19
40872;BME280;26591;43.264;26.940;2022-09-23T08:42:32;99231.34;;;21.46;41.30
40872;BME280;26591;43.264;26.940;2022-09-23T08:45:00;99230.53;;;22.05;40.53
40872;BME280;26591;43.264;26.940;2022-09-23T08:50:23;99234.03;;;21.94;39.94
40872;BME280;26591;43.264;26.940;2022-09-23T08:52:53;99228.03;;;22.28;40.13
40872;BME280;26591;43.264;26.940;2022-09-23T08:55:33;99224.66;;;22.61;39.71
40872;BME280;26591;43.264;26.940;2022-09-23T09:00:27;99218.72;;;21.94;40.24
40872;BME280;26591;43.264;26.940;2022-09-23T09:02:55;99215.88;;;22.01;40.64
40872;BME280;26591;43.264;26.940;2022-09-23T09:05:23;99208.41;;;21.56;39.57
40872;BME280;26591;43.264;26.940;2022-09-23T09:07:50;99214.69;;;21.49;40.97
40872;BME280;26591;43.264;26.940;2022-09-23T09:10:22;99218.56;;;21.54;40.23
40872;BME280;26591;43.264;26.940;2022-09-23T09:13:12;99217.03;;;21.34;40.64
40872;BME280;26591;43.264;26.940;2022-09-23T09:15:36;99206.50;;;21.09;41.16
40872;BME280;26591;43.264;26.940;2022-09-23T09:18:15;99214.97;;;20.94;41.83
40872;BME280;26591;43.264;26.940;2022-09-23T09:25:47;99214.50;;;20.36;43.13
40872;BME280;26591;43.264;26.940;2022-09-23T09:28:27;99210.06;;;19.86;43.89
40872;BME280;26591;43.264;26.940;2022-09-23T09:30:56;99220.34;;;19.70;44.33
40872;BME280;26591;43.264;26.940;2022-09-23T09:33:26;99211.16;;;19.59;45.06
40872;BME280;26591;43.264;26.940;2022-09-23T09:38:38;99212.44;;;19.57;44.96
40872;BME280;26591;43.264;26.940;2022-09-23T09:41:14;99209.88;;;19.43;45.17
40872;BME280;26591;43.264;26.940;2022-09-23T09:43:40;99208.25;;;19.10;45.29
40872;BME280;26591;43.264;26.940;2022-09-23T09:48:38;99210.72;;;19.62;45.35
40872;BME280;26591;43.264;26.940;2022-09-23T09:51:20;99204.56;;;19.36;45.41
40872;BME280;26591;43.264;26.940;2022-09-23T09:53:46;99198.69;;;19.46;44.93
40872;BME280;26591;43.264;26.940;2022-09-23T09:56:12;99197.38;;;19.30;45.54
40872;BME280;26591;43.264;26.940;2022-09-23T10:01:16;99195.63;;;19.87;44.29
40872;BME280;26591;43.264;26.940;2022-09-23T10:03:42;99196.06;;;19.14;45.40
40872;BME280;26591;43.264;26.940;2022-09-23T10:06:19;99192.22;;;19.29;45.57
40872;BME280;26591;43.264;26.940;2022-09-23T10:08:47;99191.50;;;19.40;44.59
40872;BME280;26591;43.264;26.940;2022-09-23T10:11:13;99183.44;;;19.84;44.33
40872;BME280;26591;43.264;26.940;2022-09-23T10:14:03;99180.84;;;19.96;43.40
40872;BME280;26591;43.264;26.940;2022-09-23T10:16:28;99178.00;;;20.28;43.23
40872;BME280;26591;43.264;26.940;2022-09-23T10:18:55;99180.22;;;20.80;42.87
40872;BME280;26591;43.264;26.940;2022-09-23T10:21:22;99175.97;;;21.39;41.31
40872;BME280;26591;43.264;26.940;2022-09-23T10:23:51;99172.56;;;21.31;38.33
40872;BME280;26591;43.264;26.940;2022-09-23T10:26:25;99166.47;;;21.36;38.59
40872;BME280;26591;43.264;26.940;2022-09-23T10:28:51;99162.28;;;21.64;37.68
40872;BME280;26591;43.264;26.940;2022-09-23T10:33:49;99166.38;;;22.19;37.38
40872;BME280;26591;43.264;26.940;2022-09-23T10:36:15;99162.97;;;21.83;37.02
40872;BME280;26591;43.264;26.940;2022-09-23T10:38:41;99154.81;;;22.07;36.43
40872;BME280;26591;43.264;26.940;2022-09-23T10:44:25;99156.09;;;22.45;36.57
40872;BME280;26591;43.264;26.940;2022-09-23T10:49:58;99149.56;;;22.41;35.46
40872;BME280;26591;43.264;26.940;2022-09-23T10:52:40;99145.00;;;22.42;36.31
40872;BME280;26591;43.264;26.940;2022-09-23T10:57:40;99140.88;;;22.10;36.23
40872;BME280;26591;43.264;26.940;2022-09-23T11:07:44;99151.38;;;21.35;39.74
40872;BME280;26591;43.264;26.940;2022-09-23T11:23:46;99132.34;;;19.54;44.42
40872;BME280;26591;43.264;26.940;2022-09-23T11:38:51;99129.81;;;19.59;45.44
40872;BME280;26591;43.264;26.940;2022-09-23T11:43:45;99126.63;;;19.69;44.45
40872;BME280;26591;43.264;26.940;2022-09-23T11:46:32;99130.56;;;19.47;45.37
40872;BME280;26591;43.264;26.940;2022-09-23T11:54:24;99111.25;;;18.56;46.13
40872;BME280;26591;43.264;26.940;2022-09-23T11:56:52;99112.63;;;18.40;47.42
40872;BME280;26591;43.264;26.940;2022-09-23T11:59:27;99114.22;;;18.48;46.81
40872;BME280;26591;43.264;26.940;2022-09-23T12:04:50;99109.31;;;18.70;47.67
40872;BME280;26591;43.264;26.940;2022-09-23T12:07:23;99111.41;;;18.93;48.34
40872;BME280;26591;43.264;26.940;2022-09-23T12:12:28;99118.13;;;18.77;47.72
40872;BME280;26591;43.264;26.940;2022-09-23T12:19:59;99105.44;;;18.66;47.92
40872;BME280;26591;43.264;26.940;2022-09-23T12:22:51;99107.25;;;18.72;48.26
40872;BME280;26591;43.264;26.940;2022-09-23T12:30:48;99111.53;;;19.05;46.83
40872;BME280;26591;43.264;26.940;2022-09-23T12:35:43;99102.38;;;19.13;46.45
40872;BME280;26591;43.264;26.940;2022-09-23T12:38:25;99093.88;;;19.41;45.52
40872;BME280;26591;43.264;26.940;2022-09-23T12:40:53;99092.22;;;19.77;45.45
40872;BME280;26591;43.264;26.940;2022-09-23T12:43:30;99093.47;;;20.12;44.13
40872;BME280;26591;43.264;26.940;2022-09-23T12:51:22;99087.41;;;20.17;43.53
40872;BME280;26591;43.264;26.940;2022-09-23T12:53:52;99091.06;;;19.92;44.14
40872;BME280;26591;43.264;26.940;2022-09-23T13:06:31;99076.72;;;18.98;45.22
40872;BME280;26591;43.264;26.940;2022-09-23T13:09:05;99081.81;;;19.06;45.24
40872;BME280;26591;43.264;26.940;2022-09-23T13:11:32;99075.09;;;19.60;44.18
40872;BME280;26591;43.264;26.940;2022-09-23T13:14:02;99077.25;;;19.88;43.77
40872;BME280;26591;43.264;26.940;2022-09-23T13:16:35;99078.44;;;19.92;43.69
40872;BME280;26591;43.264;26.940;2022-09-23T13:19:05;99068.44;;;19.62;43.99
40872;BME280;26591;43.264;26.940;2022-09-23T13:26:37;99074.97;;;20.77;42.00
40872;BME280;26591;43.264;26.940;2022-09-23T13:29:02;99071.94;;;20.85;41.70
40872;BME280;26591;43.264;26.940;2022-09-23T13:31:28;99068.38;;;20.18;42.65
40872;BME280;26591;43.264;26.940;2022-09-23T13:33:55;99066.09;;;19.85;43.09
40872;BME280;26591;43.264;26.940;2022-09-23T13:36:24;99066.34;;;19.64;43.44
40872;BME280;26591;43.264;26.940;2022-09-23T13:38:50;99066.56;;;19.26;44.89
40872;BME280;26591;43.264;26.940;2022-09-23T13:41:19;99071.03;;;19.13;45.66
40872;BME280;26591;43.264;26.940;2022-09-23T13:43:55;99058.50;;;18.82;45.49
40872;BME280;26591;43.264;26.940;2022-09-23T13:46:25;99070.03;;;18.82;46.51
40872;BME280;26591;43.264;26.940;2022-09-23T13:48:52;99063.00;;;19.13;45.47
40872;BME280;26591;43.264;26.940;2022-09-23T13:51:31;99059.94;;;19.47;45.19
40872;BME280;26591;43.264;26.940;2022-09-23T13:53:58;99073.38;;;19.47;44.92
40872;BME280;26591;43.264;26.940;2022-09-23T13:56:26;99069.31;;;19.19;44.97
40872;BME280;26591;43.264;26.940;2022-09-23T13:58:51;99071.41;;;19.17;45.34
40872;BME280;26591;43.264;26.940;2022-09-23T14:01:33;99076.38;;;18.88;45.25
40872;BME280;26591;43.264;26.940;2022-09-23T14:04:00;99071.69;;;18.83;45.47
40872;BME280;26591;43.264;26.940;2022-09-23T14:06:26;99073.38;;;18.78;45.81
40872;BME280;26591;43.264;26.940;2022-09-23T14:08:53;99074.13;;;18.85;45.82
40872;BME280;26591;43.264;26.940;2022-09-23T14:11:21;99090.38;;;18.97;45.64
40872;BME280;26591;43.264;26.940;2022-09-23T14:13:48;99076.72;;;18.98;45.42
40872;BME280;26591;43.264;26.940;2022-09-23T14:16:15;99079.00;;;18.69;45.86
40872;BME280;26591;43.264;26.940;2022-09-23T14:18:44;99072.59;;;18.45;46.28
40872;BME280;26591;43.264;26.940;2022-09-23T14:21:27;99075.00;;;18.21;46.46
40872;BME280;26591;43.264;26.940;2022-09-23T14:23:52;99069.19;;;18.31;46.70
40872;BME280;26591;43.264;26.940;2022-09-23T14:26:18;99072.13;;;18.23;46.30
40872;BME280;26591;43.264;26.940;2022-09-23T14:28:44;99073.53;;;18.25;46.46
40872;BME280;26591;43.264;26.940;2022-09-23T14:31:10;99077.50;;;18.16;46.54
40872;BME280;26591;43.264;26.940;2022-09-23T14:33:38;99070.31;;;18.17;46.51
40872;BME280;26591;43.264;26.940;2022-09-23T14:36:04;99071.34;;;18.15;46.84
40872;BME280;26591;43.264;26.940;2022-09-23T14:38:33;99065.25;;;18.34;46.70
40872;BME280;26591;43.264;26.940;2022-09-23T14:41:18;99072.03;;;18.36;45.01
40872;BME280;26591;43.264;26.940;2022-09-23T14:43:50;99074.91;;;18.67;45.38
40872;BME280;26591;43.264;26.940;2022-09-23T14:46:17;99069.19;;;18.88;43.29
40872;BME280;26591;43.264;26.940;2022-09-23T14:48:43;99075.06;;;19.23;42.95
40872;BME280;26591;43.264;26.940;2022-09-23T14:51:15;99069.78;;;19.34;42.83
40872;BME280;26591;43.264;26.940;2022-09-23T14:53:41;99070.16;;;19.38;42.25
40872;BME280;26591;43.264;26.940;2022-09-23T14:56:20;99070.06;;;19.45;43.03
40872;BME280;26591;43.264;26.940;2022-09-23T14:58:55;99062.91;;;19.20;43.47
40872;BME280;26591;43.264;26.940;2022-09-23T15:01:25;99061.09;;;19.14;44.08
40872;BME280;26591;43.264;26.940;2022-09-23T15:03:51;99068.75;;;19.35;43.22
40872;BME280;26591;43.264;26.940;2022-09-23T15:06:17;99068.50;;;19.37;43.52
40872;BME280;26591;43.264;26.940;2022-09-23T15:08:43;99066.63;;;19.56;42.90
40872;BME280;26591;43.264;26.940;2022-09-23T15:11:09;99068.31;;;19.39;43.10
40872;BME280;26591;43.264;26.940;2022-09-23T15:13:35;99072.47;;;19.34;43.09
40872;BME280;26591;43.264;26.940;2022-09-23T15:16:02;99064.72;;;19.26;43.18
40872;BME280;26591;43.264;26.940;2022-09-23T15:18:32;99070.41;;;18.60;42.84
40872;BME280;26591;43.264;26.940;2022-09-23T15:21:00;99068.34;;;18.63;43.02
40872;BME280;26591;43.264;26.940;2022-09-23T15:26:16;99067.41;;;18.75;42.40
40872;BME280;26591;43.264;26.940;2022-09-23T15:28:41;99074.31;;;18.65;42.48
40872;BME280;26591;43.264;26.940;2022-09-23T15:31:14;99070.03;;;18.25;43.60
40872;BME280;26591;43.264;26.940;2022-09-23T15:33:43;99078.81;;;18.39;43.85
40872;BME280;26591;43.264;26.940;2022-09-23T15:36:11;99078.34;;;18.49;44.16
40872;BME280;26591;43.264;26.940;2022-09-23T15:38:43;99085.41;;;18.68;44.37
40872;BME280;26591;43.264;26.940;2022-09-23T15:41:08;99092.75;;;18.80;44.57
40872;BME280;26591;43.264;26.940;2022-09-23T15:43:34;99097.50;;;18.78;44.70
40872;BME280;26591;43.264;26.940;2022-09-23T15:46:06;99100.25;;;18.71;44.36
40872;BME280;26591;43.264;26.940;2022-09-23T15:48:36;99103.41;;;18.61;44.95
40872;BME280;26591;43.264;26.940;2022-09-23T15:51:04;99102.31;;;18.69;44.82